Time;durP1;ratioP1;P1;durP2;ratioP2;P2;SDS_P1;SDS_P2;PMS_P1;PMS_P2;Temp;Humidity;BMP_temperature;BMP_pressure;BME280_temperature;BME280_humidity;BME280_pressure;Samples;Min_cycle;Max_cycle;Signal;HPM_P1;HPM_P2
2022/10/31 00:01:36;;;;;;;4.07;2.50;;;22.50;62.60;;;;;;5052379;28;20450;-44
2022/10/31 00:04:02;;;;;;;3.45;2.25;;;22.50;62.60;;;;;;5051175;28;20104;-45
2022/10/31 00:06:28;;;;;;;4.85;3.00;;;22.40;63.10;;;;;;5052879;28;20115;-44
2022/10/31 00:08:56;;;;;;;3.45;2.35;;;22.50;62.60;;;;;;5039977;28;20410;-44
2022/10/31 00:11:22;;;;;;;4.38;2.50;;;22.40;62.50;;;;;;5052606;28;20418;-45
2022/10/31 00:13:49;;;;;;;4.28;2.75;;;22.40;62.50;;;;;;5051803;28;20410;-51
2022/10/31 00:16:19;;;;;;;4.60;2.30;;;22.40;62.50;;;;;;5052701;28;20027;-44
2022/10/31 00:18:53;;;;;;;3.60;2.63;;;22.40;62.40;;;;;;5048654;28;20055;-50
2022/10/31 00:21:19;;;;;;;4.38;2.60;;;22.40;62.40;;;;;;5045835;28;20465;-45
2022/10/31 00:23:52;;;;;;;3.70;2.30;;;22.40;62.40;;;;;;5051868;28;20100;-51
2022/10/31 00:26:17;;;;;;;3.50;2.10;;;22.40;62.40;;;;;;5050737;28;20025;-46
2022/10/31 00:28:43;;;;;;;4.82;2.42;;;22.40;62.40;;;;;;5059058;28;20071;-44
2022/10/31 00:31:11;;;;;;;3.33;2.30;;;22.40;62.40;;;;;;5043719;28;20025;-44
2022/10/31 00:33:38;;;;;;;5.03;2.78;;;22.40;62.40;;;;;;5052748;28;20461;-45
2022/10/31 00:36:05;;;;;;;2.97;1.85;;;22.40;62.30;;;;;;5051336;28;20355;-44
2022/10/31 00:38:31;;;;;;;3.13;2.30;;;22.40;62.30;;;;;;5052360;28;20021;-44
2022/10/31 00:40:57;;;;;;;3.85;2.00;;;22.40;62.30;;;;;;5027564;28;20373;-44
2022/10/31 00:43:22;;;;;;;4.13;2.55;;;22.40;62.40;;;;;;5050515;28;20029;-44
2022/10/31 00:45:48;;;;;;;4.72;2.20;;;22.40;62.30;;;;;;5056996;28;20064;-50
2022/10/31 00:48:14;;;;;;;4.55;2.22;;;22.40;62.20;;;;;;5049186;28;20078;-44
2022/10/31 00:50:40;;;;;;;4.03;2.22;;;22.40;62.30;;;;;;5051297;28;20374;-45
2022/10/31 00:53:06;;;;;;;3.95;2.30;;;22.40;62.20;;;;;;5051477;28;20648;-44
2022/10/31 00:55:32;;;;;;;3.33;1.95;;;22.40;62.20;;;;;;5051613;28;20097;-44
2022/10/31 00:57:57;;;;;;;3.22;2.22;;;22.40;62.20;;;;;;5049567;28;20025;-45
2022/10/31 01:00:23;;;;;;;3.75;2.30;;;22.40;62.20;;;;;;5051123;28;20017;-45
2022/10/31 01:02:49;;;;;;;4.32;2.65;;;22.40;62.20;;;;;;5048517;28;20021;-45
2022/10/31 01:05:15;;;;;;;4.22;2.10;;;22.40;62.20;;;;;;5041957;28;20079;-45
2022/10/31 01:07:41;;;;;;;3.83;2.10;;;22.40;62.20;;;;;;5049990;28;20029;-46
2022/10/31 01:10:07;;;;;;;2.95;1.88;;;22.40;62.20;;;;;;5049550;28;20041;-44
2022/10/31 01:12:40;;;;;;;5.18;2.40;;;22.40;62.10;;;;;;5051276;28;20025;-44
2022/10/31 01:15:07;;;;;;;3.10;2.13;;;22.40;62.10;;;;;;5049940;28;20622;-44
2022/10/31 01:17:33;;;;;;;3.72;2.53;;;22.40;62.10;;;;;;5049471;28;20059;-45
2022/10/31 01:19:59;;;;;;;5.93;2.70;;;22.40;62.10;;;;;;5049135;28;20017;-44
2022/10/31 01:22:25;;;;;;;4.28;2.10;;;22.40;62.10;;;;;;5051199;28;20086;-45
2022/10/31 01:24:50;;;;;;;3.35;1.90;;;22.40;62.00;;;;;;5049934;28;20032;-46
2022/10/31 01:27:16;;;;;;;3.35;2.00;;;22.40;62.00;;;;;;5053489;28;20043;-44
2022/10/31 01:29:42;;;;;;;3.10;2.00;;;22.30;62.00;;;;;;5050089;28;20024;-45
2022/10/31 01:32:07;;;;;;;5.13;2.10;;;22.30;61.90;;;;;;5048855;28;20040;-44
2022/10/31 01:34:33;;;;;;;5.40;2.10;;;22.30;61.90;;;;;;5051118;28;20100;-44
2022/10/31 01:36:58;;;;;;;4.53;2.15;;;22.30;61.90;;;;;;5050083;28;20045;-44
2022/10/31 01:39:24;;;;;;;4.03;2.03;;;22.40;62.00;;;;;;5050596;28;20029;-44
2022/10/31 01:41:52;;;;;;;3.50;2.10;;;22.30;61.90;;;;;;5044745;28;20021;-45
2022/10/31 01:44:18;;;;;;;4.28;2.22;;;22.40;62.00;;;;;;5050613;28;20029;-44
2022/10/31 01:47:11;;;;;;;4.57;1.90;;;22.40;61.90;;;;;;5051281;28;20040;-45
2022/10/31 01:49:50;;;;;;;3.85;2.33;;;22.30;61.90;;;;;;5043898;28;20052;-44
2022/10/31 01:52:37;;;;;;;4.38;2.33;;;22.30;61.80;;;;;;5034254;28;20028;-45
2022/10/31 01:55:15;;;;;;;5.97;2.63;;;22.30;61.90;;;;;;5046585;28;20116;-44
2022/10/31 01:57:44;;;;;;;3.63;2.33;;;22.30;61.80;;;;;;5050130;28;20031;-45
2022/10/31 02:00:11;;;;;;;2.45;1.92;;;22.30;61.80;;;;;;5050194;28;20014;-44
2022/10/31 02:02:36;;;;;;;2.45;1.77;;;22.30;61.80;;;;;;5050878;28;20017;-44
2022/10/31 02:05:06;;;;;;;4.72;1.92;;;22.30;61.80;;;;;;5048691;28;20088;-45
2022/10/31 02:07:42;;;;;;;3.70;2.10;;;22.30;61.80;;;;;;5050287;28;20123;-44
2022/10/31 02:10:08;;;;;;;5.05;2.38;;;22.30;61.80;;;;;;5049704;28;20045;-44
2022/10/31 02:12:35;;;;;;;4.28;2.03;;;22.30;61.80;;;;;;5055355;28;20021;-44
2022/10/31 02:15:02;;;;;;;4.15;2.08;;;22.30;61.80;;;;;;5053653;28;20029;-45
2022/10/31 02:17:30;;;;;;;4.35;2.10;;;22.30;61.70;;;;;;5049279;28;20032;-44
2022/10/31 02:20:08;;;;;;;3.30;2.05;;;22.30;61.70;;;;;;5054576;28;20454;-45
2022/10/31 02:22:57;;;;;;;3.97;2.25;;;22.30;61.70;;;;;;5054842;28;20044;-45
2022/10/31 02:25:46;;;;;;;3.55;1.83;;;22.30;61.70;;;;;;5053681;28;20037;-51
2022/10/31 02:28:18;;;;;;;2.50;1.88;;;22.30;61.70;;;;;;5054558;28;20462;-45
2022/10/31 02:31:12;;;;;;;3.58;2.00;;;22.30;61.70;;;;;;5041421;28;20017;-44
2022/10/31 02:33:48;;;;;;;3.42;1.90;;;22.30;61.70;;;;;;5054480;28;20099;-44
2022/10/31 02:36:28;;;;;;;2.50;1.80;;;22.30;61.70;;;;;;5053366;28;20025;-45
2022/10/31 02:38:59;;;;;;;3.05;2.08;;;22.30;61.60;;;;;;5058474;28;20029;-45
2022/10/31 02:41:40;;;;;;;4.00;2.10;;;22.30;61.60;;;;;;5048677;28;20025;-44
2022/10/31 02:44:25;;;;;;;3.35;2.30;;;22.30;61.60;;;;;;5053252;28;20036;-45
2022/10/31 02:47:07;;;;;;;3.47;2.25;;;22.30;61.60;;;;;;5053813;28;20033;-45
2022/10/31 02:49:55;;;;;;;3.05;2.13;;;22.30;61.60;;;;;;5054395;28;20074;-46
2022/10/31 02:52:25;;;;;;;3.30;1.90;;;22.30;61.50;;;;;;5039493;28;20025;-44
2022/10/31 02:54:51;;;;;;;3.33;1.95;;;22.30;61.60;;;;;;5037640;28;20036;-47
2022/10/31 02:57:24;;;;;;;3.90;2.13;;;22.30;61.50;;;;;;5042735;28;20103;-45
2022/10/31 02:59:55;;;;;;;6.82;1.92;;;22.30;61.50;;;;;;5049612;28;20416;-45
2022/10/31 03:02:41;;;;;;;3.05;2.00;;;22.30;61.50;;;;;;5053961;28;20021;-45
2022/10/31 03:05:47;;;;;;;2.92;1.67;;;22.30;61.60;;;;;;5047990;28;20034;-45
2022/10/31 03:08:35;;;;;;;4.40;2.03;;;22.30;61.50;;;;;;5048642;28;20067;-44
2022/10/31 03:33:36;;;;;;;2.90;1.90;;;22.30;61.40;;;;;;5033584;28;20048;-47
2022/10/31 03:36:08;;;;;;;2.92;2.08;;;22.30;61.40;;;;;;5031579;28;20025;-45
2022/10/31 03:38:35;;;;;;;3.22;1.90;;;22.30;61.40;;;;;;5033504;28;20028;-44
2022/10/31 03:41:05;;;;;;;2.47;1.98;;;22.30;61.30;;;;;;5032250;28;20451;-44
2022/10/31 03:43:36;;;;;;;3.53;2.50;;;22.30;61.40;;;;;;5033004;28;20363;-45
2022/10/31 03:46:02;;;;;;;4.15;2.08;;;22.20;61.30;;;;;;5031397;28;20494;-45
2022/10/31 03:48:28;;;;;;;4.07;2.47;;;22.30;61.40;;;;;;5030131;28;20025;-44
2022/10/31 03:51:22;;;;;;;2.42;1.65;;;22.20;61.30;;;;;;5028557;28;20017;-44
2022/10/31 03:54:04;;;;;;;2.42;2.00;;;22.20;61.30;;;;;;5033038;28;20012;-50
2022/10/31 03:56:33;;;;;;;;;;;22.30;61.30;;;;;;5034196;28;20039;-44
2022/10/31 03:59:14;;;;;;;4.85;2.05;;;22.20;61.30;;;;;;5014320;28;19955;-48
2022/10/31 04:01:45;;;;;;;3.70;2.20;;;22.20;61.30;;;;;;5033115;28;20412;-46
2022/10/31 04:04:11;;;;;;;3.05;1.90;;;22.30;61.30;;;;;;5032232;28;20029;-45
2022/10/31 04:06:38;;;;;;;2.70;1.70;;;22.20;61.20;;;;;;5033293;28;20030;-45
2022/10/31 04:09:06;;;;;;;2.38;1.67;;;22.20;61.20;;;;;;5029417;28;20659;-45
2022/10/31 04:11:36;;;;;;;2.38;1.90;;;22.20;61.20;;;;;;5042526;28;20032;-45
2022/10/31 04:14:04;;;;;;;3.42;1.70;;;22.20;61.20;;;;;;5031533;28;20021;-45
2022/10/31 04:16:30;;;;;;;3.00;1.83;;;22.30;61.20;;;;;;5032765;28;20434;-45
2022/10/31 04:18:56;;;;;;;3.72;2.30;;;22.20;61.20;;;;;;5026742;28;20053;-45
2022/10/31 04:21:30;;;;;;;2.85;2.10;;;22.20;61.20;;;;;;5031070;28;20056;-45
2022/10/31 04:23:56;;;;;;;3.80;1.70;;;22.20;61.20;;;;;;5031806;28;20354;-47
2022/10/31 04:26:22;;;;;;;3.90;2.13;;;22.20;61.20;;;;;;5030180;28;20037;-45
2022/10/31 04:28:49;;;;;;;3.55;1.70;;;22.20;61.10;;;;;;5022297;28;20045;-50
2022/10/31 04:31:15;;;;;;;3.10;1.92;;;22.20;61.20;;;;;;5029312;28;20470;-44
2022/10/31 04:33:41;;;;;;;2.95;1.70;;;22.20;61.10;;;;;;5052235;28;20032;-45
2022/10/31 04:36:08;;;;;;;3.47;1.90;;;22.20;61.10;;;;;;5042713;28;20037;-44
2022/10/31 04:38:33;;;;;;;2.97;1.95;;;22.20;61.10;;;;;;5039228;28;20037;-44
2022/10/31 04:40:59;;;;;;;2.47;1.80;;;22.20;61.10;;;;;;5051276;28;20070;-44
2022/10/31 04:43:25;;;;;;;3.67;1.88;;;22.20;61.00;;;;;;5049479;28;20116;-45
2022/10/31 04:45:50;;;;;;;2.95;1.80;;;22.20;61.10;;;;;;5047962;28;20033;-44
2022/10/31 04:48:17;;;;;;;4.90;1.98;;;22.20;61.10;;;;;;5050735;28;20017;-45
2022/10/31 04:50:42;;;;;;;2.75;1.95;;;22.20;61.10;;;;;;5049713;28;20082;-45
2022/10/31 04:53:08;;;;;;;2.08;1.88;;;22.20;61.00;;;;;;5051138;28;20025;-45
2022/10/31 04:55:35;;;;;;;2.25;1.48;;;22.20;61.20;;;;;;5051239;28;20025;-47
2022/10/31 04:58:01;;;;;;;4.15;1.90;;;22.20;61.10;;;;;;5050097;28;20033;-44
2022/10/31 05:00:26;;;;;;;3.65;1.95;;;22.20;61.10;;;;;;5051168;28;20135;-45
2022/10/31 05:02:54;;;;;;;2.58;1.80;;;22.20;61.60;;;;;;5051083;28;20386;-45
2022/10/31 05:05:22;;;;;;;4.03;1.55;;;22.20;61.10;;;;;;5050826;28;20371;-45
2022/10/31 05:07:49;;;;;;;3.10;2.38;;;22.20;61.00;;;;;;5031382;28;20037;-51
2022/10/31 05:10:18;;;;;;;2.70;1.67;;;22.20;61.00;;;;;;5047828;28;20053;-44
2022/10/31 05:12:52;;;;;;;2.75;2.10;;;22.20;61.00;;;;;;5051505;28;20021;-45
2022/10/31 05:15:20;;;;;;;2.38;1.70;;;22.20;61.00;;;;;;5050645;28;20111;-45
2022/10/31 05:17:53;;;;;;;2.63;1.60;;;22.20;61.00;;;;;;5049604;28;20029;-51
2022/10/31 05:20:21;;;;;;;2.22;1.48;;;22.20;61.00;;;;;;5049210;28;20048;-47
2022/10/31 05:22:50;;;;;;;2.97;2.05;;;22.20;60.90;;;;;;5051080;28;20028;-51
2022/10/31 05:25:17;;;;;;;2.75;1.63;;;22.20;61.00;;;;;;5051174;28;20032;-45
2022/10/31 05:27:44;;;;;;;4.20;2.38;;;22.20;60.90;;;;;;5050081;28;20029;-46
2022/10/31 05:30:12;;;;;;;2.92;2.08;;;22.20;60.90;;;;;;5050515;28;20088;-45
2022/10/31 05:32:44;;;;;;;3.58;1.80;;;22.20;60.90;;;;;;5050751;28;20073;-45
2022/10/31 05:35:12;;;;;;;3.95;2.00;;;22.20;60.90;;;;;;5049978;28;20075;-45
2022/10/31 05:37:38;;;;;;;3.40;1.75;;;22.20;60.80;;;;;;5050664;28;20032;-44
2022/10/31 05:40:06;;;;;;;3.40;1.77;;;22.20;60.90;;;;;;5049990;28;20041;-44
2022/10/31 05:42:32;;;;;;;3.65;1.88;;;22.20;60.80;;;;;;5049086;28;20040;-48
2022/10/31 05:44:57;;;;;;;2.70;1.95;;;22.20;60.80;;;;;;5046916;28;20021;-44
2022/10/31 05:47:23;;;;;;;3.10;2.05;;;22.20;60.80;;;;;;5055580;28;20458;-45
2022/10/31 05:49:49;;;;;;;3.90;1.95;;;22.20;60.80;;;;;;5037158;28;20072;-48
2022/10/31 05:52:15;;;;;;;2.58;2.10;;;22.20;60.80;;;;;;5050118;28;20032;-44
2022/10/31 05:54:40;;;;;;;2.63;1.83;;;22.20;60.80;;;;;;5042518;28;20029;-45
2022/10/31 05:57:06;;;;;;;2.33;1.88;;;22.20;60.90;;;;;;5048405;28;20033;-44
2022/10/31 05:59:32;;;;;;;3.33;1.88;;;22.20;60.80;;;;;;5054930;28;20032;-44
2022/10/31 06:01:58;;;;;;;3.38;1.90;;;22.20;60.90;;;;;;5054665;28;20048;-45
2022/10/31 06:04:23;;;;;;;2.58;1.67;;;22.20;60.80;;;;;;5054378;28;20031;-45
2022/10/31 06:06:49;;;;;;;2.88;1.85;;;22.20;60.80;;;;;;5045086;28;20120;-49
2022/10/31 06:09:15;;;;;;;3.08;1.88;;;22.20;60.80;;;;;;5054467;28;20527;-47
2022/10/31 06:11:40;;;;;;;3.30;1.80;;;22.20;60.70;;;;;;5054695;28;20407;-45
2022/10/31 06:14:06;;;;;;;2.55;1.60;;;22.20;60.80;;;;;;5053456;28;20245;-45
2022/10/31 06:16:32;;;;;;;2.35;1.70;;;22.20;60.70;;;;;;5053291;28;20060;-45
2022/10/31 06:18:57;;;;;;;3.05;1.88;;;22.20;60.70;;;;;;5052988;28;20060;-45
2022/10/31 06:21:23;;;;;;;2.70;1.80;;;22.20;60.70;;;;;;5055011;28;20017;-45
2022/10/31 06:23:50;;;;;;;3.03;2.10;;;22.20;60.70;;;;;;5053491;28;20017;-51
2022/10/31 06:26:15;;;;;;;3.28;1.85;;;22.10;60.70;;;;;;5053655;28;20040;-45
2022/10/31 06:28:41;;;;;;;2.75;1.90;;;22.20;60.70;;;;;;5054414;28;20028;-45
2022/10/31 06:31:06;;;;;;;3.13;2.00;;;22.10;60.60;;;;;;5052704;28;20210;-45
2022/10/31 06:33:33;;;;;;;3.78;1.60;;;22.20;60.70;;;;;;5054435;28;20481;-45
2022/10/31 06:35:59;;;;;;;3.05;1.75;;;22.10;60.70;;;;;;5051510;28;20501;-45
2022/10/31 06:38:26;;;;;;;3.30;1.70;;;22.20;60.70;;;;;;5040820;28;20029;-45
2022/10/31 06:40:53;;;;;;;3.00;1.75;;;22.20;60.80;;;;;;5052883;28;20036;-46
2022/10/31 06:43:19;;;;;;;2.67;1.80;;;22.20;60.90;;;;;;5054642;28;20029;-45
2022/10/31 06:45:51;;;;;;;2.80;1.80;;;22.20;61.00;;;;;;5053032;28;20033;-51
2022/10/31 06:48:17;;;;;;;3.58;2.00;;;22.20;61.10;;;;;;5054007;28;20078;-45
2022/10/31 06:50:42;;;;;;;4.78;1.88;;;22.20;61.20;;;;;;5053416;28;20064;-46
2022/10/31 06:53:10;;;;;;;3.17;1.67;;;22.20;61.20;;;;;;5053086;28;20120;-46
2022/10/31 06:55:36;;;;;;;3.67;1.92;;;22.20;61.20;;;;;;5047763;28;20041;-45
2022/10/31 06:58:01;;;;;;;2.97;1.73;;;22.20;61.30;;;;;;5053131;28;20025;-45
2022/10/31 07:00:29;;;;;;;2.55;1.60;;;22.20;61.30;;;;;;5044317;28;20057;-45
2022/10/31 07:03:04;;;;;;;3.35;1.70;;;22.20;61.30;;;;;;5052655;28;20013;-45
2022/10/31 07:05:30;;;;;;;3.50;1.70;;;22.20;61.40;;;;;;5053570;28;20048;-45
2022/10/31 07:08:02;;;;;;;3.45;2.08;;;22.20;61.40;;;;;;5053202;28;20017;-45
2022/10/31 07:10:30;;;;;;;4.00;1.83;;;22.20;61.40;;;;;;5049711;28;20056;-45
2022/10/31 07:13:00;;;;;;;5.85;2.70;;;22.10;61.00;;;;;;5044459;28;20013;-44
2022/10/31 07:15:27;;;;;;;11.30;3.70;;;21.80;54.80;;;;;;5044061;28;20119;-46
2022/10/31 07:17:53;;;;;;;8.07;3.35;;;21.40;54.30;;;;;;5040511;28;20037;-45
2022/10/31 07:20:19;;;;;;;7.05;3.03;;;21.10;54.90;;;;;;5048659;28;20033;-46
2022/10/31 07:22:51;;;;;;;6.28;3.20;;;21.10;55.30;;;;;;5053662;28;20032;-52
2022/10/31 07:25:16;;;;;;;6.40;3.30;;;21.40;55.20;;;;;;5053426;28;20029;-45
2022/10/31 07:27:43;;;;;;;6.25;2.60;;;21.70;55.90;;;;;;5053572;28;20124;-45
2022/10/31 07:30:10;;;;;;;6.72;3.70;;;21.80;56.70;;;;;;5052581;28;20129;-45
2022/10/31 07:32:43;;;;;;;5.45;2.78;;;21.90;58.50;;;;;;5053075;28;20394;-45
2022/10/31 07:35:11;;;;;;;5.10;2.70;;;22.00;59.20;;;;;;5052135;28;20500;-45
2022/10/31 07:37:37;;;;;;;4.35;2.10;;;22.00;59.60;;;;;;5055878;28;20029;-45
2022/10/31 07:40:04;;;;;;;4.88;2.30;;;22.00;59.70;;;;;;5056681;28;20017;-45
2022/10/31 07:42:34;;;;;;;3.78;2.20;;;22.10;60.00;;;;;;5053757;28;20420;-44
2022/10/31 07:44:59;;;;;;;4.80;2.28;;;22.10;60.20;;;;;;5053304;28;20035;-45
2022/10/31 07:47:25;;;;;;;3.83;2.67;;;22.10;60.30;;;;;;5046004;28;20056;-48
2022/10/31 07:49:50;;;;;;;7.18;3.42;;;22.10;60.50;;;;;;5040433;28;20082;-45
2022/10/31 07:52:16;;;;;;;4.88;2.45;;;22.20;60.70;;;;;;5051966;28;20028;-44
2022/10/31 07:54:41;;;;;;;6.20;2.65;;;22.20;61.40;;;;;;5051694;28;20478;-45
2022/10/31 07:57:07;;;;;;;9.30;2.70;;;22.20;60.90;;;;;;5051986;28;20029;-44
2022/10/31 07:59:32;;;;;;;5.43;3.10;;;22.20;61.00;;;;;;5052341;28;20416;-44
2022/10/31 08:01:58;;;;;;;5.75;2.42;;;22.20;61.00;;;;;;5052055;28;20025;-44
2022/10/31 08:04:23;;;;;;;6.97;2.65;;;22.20;61.10;;;;;;5052174;28;20532;-45
2022/10/31 08:06:49;;;;;;;7.25;2.47;;;22.20;61.10;;;;;;5045902;28;20386;-46
2022/10/31 08:09:15;;;;;;;6.28;3.08;;;22.20;61.20;;;;;;5049832;28;20028;-45
2022/10/31 08:11:40;;;;;;;4.53;2.80;;;22.20;61.20;;;;;;5052402;28;20017;-45
2022/10/31 08:14:06;;;;;;;7.20;2.60;;;22.20;61.20;;;;;;5050824;28;20126;-45
2022/10/31 08:16:32;;;;;;;4.78;2.30;;;22.20;61.20;;;;;;5052282;28;20053;-44
2022/10/31 08:18:57;;;;;;;4.95;2.45;;;22.20;61.30;;;;;;5050565;28;20384;-44
2022/10/31 08:21:23;;;;;;;5.57;2.90;;;22.20;61.30;;;;;;5052118;28;20033;-45
2022/10/31 08:23:49;;;;;;;5.40;2.60;;;22.20;61.40;;;;;;5051517;28;20096;-50
2022/10/31 08:26:15;;;;;;;4.88;2.20;;;22.20;61.40;;;;;;5051187;28;20064;-45
2022/10/31 08:28:41;;;;;;;4.32;2.35;;;22.20;61.40;;;;;;5052672;28;20045;-45
2022/10/31 08:31:06;;;;;;;4.50;2.58;;;22.20;61.40;;;;;;5050973;28;20032;-45
2022/10/31 08:33:32;;;;;;;6.05;2.60;;;22.20;61.40;;;;;;5052026;28;20032;-45
2022/10/31 08:35:58;;;;;;;4.63;2.15;;;22.20;61.40;;;;;;5050864;28;20031;-44
2022/10/31 08:38:24;;;;;;;4.55;2.42;;;22.30;61.50;;;;;;5052096;28;20059;-44
2022/10/31 08:40:49;;;;;;;3.80;2.30;;;22.30;61.50;;;;;;5050938;28;20406;-46
2022/10/31 08:43:16;;;;;;;5.80;2.05;;;22.20;61.50;;;;;;5050978;28;20025;-45
2022/10/31 08:45:43;;;;;;;6.00;2.97;;;22.20;61.50;;;;;;5051289;28;20033;-44
2022/10/31 08:48:14;;;;;;;5.32;2.50;;;22.30;61.70;;;;;;5042881;28;20029;-45
2022/10/31 08:50:40;;;;;;;5.40;2.33;;;22.20;61.60;;;;;;5051535;28;20096;-44
2022/10/31 08:53:14;;;;;;;4.25;2.58;;;22.20;61.60;;;;;;5043371;28;20671;-44
2022/10/31 08:55:41;;;;;;;6.28;2.60;;;22.20;61.60;;;;;;5051186;28;20020;-45
2022/10/31 08:58:09;;;;;;;4.13;2.60;;;22.20;61.60;;;;;;5051061;28;20110;-44
2022/10/31 09:00:35;;;;;;;4.88;2.30;;;22.20;61.70;;;;;;5049793;28;20044;-45
2022/10/31 09:03:06;;;;;;;7.80;2.60;;;22.20;62.30;;;;;;5050832;28;20060;-45
2022/10/31 09:05:33;;;;;;;5.75;2.67;;;22.20;61.70;;;;;;5050903;28;20029;-45
2022/10/31 09:08:00;;;;;;;6.32;2.67;;;22.20;61.70;;;;;;5050992;28;20021;-45
2022/10/31 09:10:27;;;;;;;6.20;2.10;;;22.20;61.70;;;;;;5051129;28;20019;-45
2022/10/31 09:13:00;;;;;;;6.40;2.90;;;22.20;61.80;;;;;;5050504;28;20047;-45
2022/10/31 09:15:27;;;;;;;3.67;1.95;;;22.20;61.80;;;;;;5049943;28;20047;-45
2022/10/31 09:17:53;;;;;;;6.97;2.22;;;22.30;61.80;;;;;;5051925;28;20036;-45
2022/10/31 09:20:19;;;;;;;4.03;2.38;;;22.20;61.80;;;;;;5035817;28;20029;-45
2022/10/31 09:23:07;;;;;;;6.50;2.40;;;22.30;61.90;;;;;;5055870;28;20361;-51
2022/10/31 09:25:34;;;;;;;5.50;2.42;;;22.30;61.90;;;;;;5053537;28;20071;-45
2022/10/31 09:28:01;;;;;;;5.55;1.83;;;22.20;61.90;;;;;;5051898;28;20107;-48
2022/10/31 09:30:28;;;;;;;4.45;2.10;;;22.20;61.80;;;;;;5050468;28;20080;-46
2022/10/31 09:33:02;;;;;;;3.38;2.08;;;22.30;61.90;;;;;;5045949;28;20067;-45
2022/10/31 09:35:28;;;;;;;6.28;2.42;;;22.30;61.90;;;;;;5042332;28;20052;-45
2022/10/31 09:38:23;;;;;;;2.85;1.95;;;22.30;61.80;;;;;;5059354;28;20029;-46
2022/10/31 09:41:02;;;;;;;7.07;2.35;;;22.30;61.80;;;;;;5047060;28;20052;-51
2022/10/31 09:44:01;;;;;;;6.22;2.33;;;22.30;61.80;;;;;;5051598;28;20429;-45
2022/10/31 09:46:56;;;;;;;5.90;2.40;;;22.30;61.80;;;;;;5055674;28;20086;-45
2022/10/31 09:49:25;;;;;;;4.20;2.20;;;22.30;61.80;;;;;;5044576;28;20032;-45
2022/10/31 09:52:01;;;;;;;3.35;1.95;;;22.30;61.80;;;;;;5031183;28;20343;-48
2022/10/31 09:54:26;;;;;;;4.82;2.25;;;22.30;61.80;;;;;;5043361;28;20017;-45
2022/10/31 09:56:53;;;;;;;4.60;2.08;;;22.30;61.80;;;;;;5050443;28;20424;-45
2022/10/31 09:59:40;;;;;;;4.82;2.50;;;22.30;61.70;;;;;;5050731;28;20132;-45
2022/10/31 10:02:40;;;;;;;6.13;2.40;;;22.30;61.70;;;;;;5050601;28;20533;-44
2022/10/31 10:05:11;;;;;;;5.57;3.05;;;22.30;61.70;;;;;;5050106;28;20037;-45
2022/10/31 10:07:43;;;;;;;3.58;2.20;;;22.30;61.70;;;;;;5046143;28;20037;-45
2022/10/31 10:10:20;;;;;;;5.20;2.22;;;22.30;61.70;;;;;;5048678;28;20097;-45
2022/10/31 10:12:48;;;;;;;5.07;2.13;;;22.40;61.70;;;;;;5051220;28;20025;-49
2022/10/31 10:15:42;;;;;;;5.43;2.30;;;22.30;61.80;;;;;;5050459;28;20017;-45
2022/10/31 10:18:28;;;;;;;4.80;2.15;;;22.40;61.60;;;;;;5050579;28;20025;-45
2022/10/31 10:21:12;;;;;;;3.38;2.17;;;22.40;61.60;;;;;;5049895;28;20017;-45
2022/10/31 10:24:17;;;;;;;6.63;2.03;;;22.40;61.60;;;;;;5050739;28;20458;-45
2022/10/31 10:27:04;;;;;;;4.95;2.05;;;22.40;61.60;;;;;;5047542;28;20025;-44
2022/10/31 10:29:46;;;;;;;3.97;2.42;;;22.40;61.60;;;;;;5040894;28;20473;-45
2022/10/31 10:32:24;;;;;;;6.50;2.13;;;22.40;61.60;;;;;;5052190;28;20057;-45
2022/10/31 10:34:57;;;;;;;4.75;2.33;;;22.40;61.60;;;;;;5053711;28;20107;-51
2022/10/31 10:37:35;;;;;;;4.32;2.13;;;22.40;61.60;;;;;;5054351;28;20051;-45
2022/10/31 10:40:16;;;;;;;3.17;2.25;;;22.40;61.60;;;;;;5053482;28;20040;-45
2022/10/31 10:49:03;;;;;;;2.90;1.90;;;22.40;61.50;;;;;;5054621;28;20082;-44
2022/10/31 10:51:51;;;;;;;4.22;1.73;;;22.40;61.60;;;;;;5050523;28;20482;-45
2022/10/31 10:54:19;;;;;;;5.18;2.33;;;22.40;61.50;;;;;;5037427;28;20025;-45
2022/10/31 10:57:00;;;;;;;2.97;2.25;;;22.40;62.10;;;;;;5052307;28;20033;-44
2022/10/31 10:59:26;;;;;;;8.48;1.95;;;22.40;61.60;;;;;;5038104;28;20028;-44
2022/10/31 11:01:53;;;;;;;6.63;2.20;;;22.40;61.60;;;;;;5053628;28;20363;-50
2022/10/31 11:04:40;;;;;;;3.78;2.00;;;22.50;61.60;;;;;;5053615;28;20499;-44
2022/10/31 11:07:09;;;;;;;3.55;1.92;;;22.50;61.70;;;;;;5053336;28;20113;-44
2022/10/31 11:09:36;;;;;;;4.05;2.22;;;22.40;61.60;;;;;;5053434;28;20029;-44
2022/10/31 11:12:18;;;;;;;3.53;1.95;;;22.40;61.70;;;;;;5051760;28;20028;-44
2022/10/31 11:15:01;;;;;;;4.72;2.30;;;22.40;61.70;;;;;;5058645;28;20021;-44
2022/10/31 11:17:31;;;;;;;4.47;2.22;;;22.40;61.60;;;;;;5053299;28;20044;-44
2022/10/31 11:20:20;;;;;;;5.13;2.20;;;22.40;61.60;;;;;;5054816;28;20048;-44
2022/10/31 11:22:48;;;;;;;8.10;2.42;;;22.40;61.70;;;;;;5051482;28;20060;-45
2022/10/31 11:25:21;;;;;;;3.35;2.30;;;22.40;61.70;;;;;;5062939;28;20024;-44
2022/10/31 11:27:47;;;;;;;3.30;2.10;;;22.40;62.20;;;;;;5062496;28;20394;-44
2022/10/31 11:30:14;;;;;;;4.65;2.53;;;22.40;61.60;;;;;;5061196;28;20505;-44
2022/10/31 11:32:50;;;;;;;2.95;2.10;;;22.40;61.70;;;;;;5059950;28;20052;-44
2022/10/31 11:35:18;;;;;;;4.55;2.10;;;22.40;61.60;;;;;;5050628;28;20095;-44
2022/10/31 11:37:45;;;;;;;5.28;2.88;;;22.40;61.70;;;;;;5044830;28;20466;-49
2022/10/31 11:40:37;;;;;;;5.97;2.60;;;22.40;61.50;;;;;;5045070;28;20056;-44
2022/10/31 11:43:03;;;;;;;6.63;2.55;;;22.40;61.50;;;;;;5052759;28;20037;-44
2022/10/31 11:45:33;;;;;;;4.65;2.55;;;22.50;61.40;;;;;;5057272;28;20023;-44
2022/10/31 11:48:00;;;;;;;5.78;2.47;;;22.50;61.90;;;;;;5057702;28;20366;-44
2022/10/31 11:50:39;;;;;;;9.90;4.07;;;22.50;61.30;;;;;;5053489;28;20017;-44
2022/10/31 11:53:15;;;;;;;10.70;4.45;;;22.50;61.40;;;;;;5048278;28;20025;-44
2022/10/31 11:55:41;;;;;;;12.00;4.30;;;22.60;61.60;;;;;;5039491;28;20028;-44
2022/10/31 11:58:24;;;;;;;11.02;4.32;;;22.60;61.40;;;;;;5054873;28;20025;-44
2022/10/31 12:00:56;;;;;;;16.08;4.80;;;22.50;60.40;;;;;;5045822;28;20096;-51
2022/10/31 12:04:03;;;;;;;14.70;4.35;;;22.50;59.90;;;;;;5054950;28;20048;-44
2022/10/31 12:06:36;;;;;;;13.05;3.70;;;22.50;59.90;;;;;;5036730;28;20033;-44
2022/10/31 12:09:11;;;;;;;10.20;4.60;;;22.50;59.80;;;;;;5048458;28;20764;-45
2022/10/31 12:12:10;;;;;;;15.13;5.68;;;22.50;59.60;;;;;;5057662;28;20104;-45
2022/10/31 12:15:00;;;;;;;21.38;8.05;;;22.50;59.60;;;;;;5056272;28;20028;-45
2022/10/31 12:17:42;;;;;;;24.13;8.85;;;22.50;59.50;;;;;;5051104;28;20029;-45
2022/10/31 12:20:52;;;;;;;25.63;10.13;;;22.50;59.30;;;;;;5052930;28;20028;-45
2022/10/31 12:23:43;;;;;;;18.58;7.00;;;22.50;60.00;;;;;;5016473;28;20115;-44
2022/10/31 12:26:11;;;;;;;20.90;6.68;;;22.50;59.20;;;;;;5050944;28;20064;-45
2022/10/31 12:28:39;;;;;;;15.80;6.32;;;22.50;59.00;;;;;;5059493;28;20017;-45
2022/10/31 12:31:26;;;;;;;14.00;5.40;;;22.60;59.00;;;;;;5050889;28;20108;-45
2022/10/31 12:34:32;;;;;;;17.40;5.18;;;22.60;58.90;;;;;;5059560;28;20444;-51
2022/10/31 12:37:24;;;;;;;10.32;4.43;;;22.60;58.70;;;;;;5056246;28;20025;-45
2022/10/31 12:40:21;;;;;;;14.50;4.85;;;22.60;58.60;;;;;;5057395;28;20045;-51
2022/10/31 12:43:01;;;;;;;11.77;5.50;;;22.60;58.60;;;;;;5051535;28;20017;-44
2022/10/31 12:45:35;;;;;;;9.30;5.18;;;22.60;58.50;;;;;;5054668;28;20021;-44
2022/10/31 12:48:30;;;;;;;13.10;5.03;;;22.60;58.60;;;;;;5051775;28;20012;-44
2022/10/31 12:51:02;;;;;;;10.10;4.55;;;22.50;58.60;;;;;;5058101;28;20090;-45
2022/10/31 12:54:06;;;;;;;6.07;4.03;;;22.50;58.60;;;;;;5052985;28;20083;-44
2022/10/31 12:56:38;;;;;;;12.07;5.18;;;22.50;58.60;;;;;;5011022;28;20507;-44
2022/10/31 12:59:19;;;;;;;8.05;4.18;;;22.50;58.70;;;;;;5048595;28;20110;-45
2022/10/31 13:02:02;;;;;;;7.78;4.07;;;22.50;58.60;;;;;;5038658;28;20070;-44
2022/10/31 13:05:20;;;;;;;6.18;4.03;;;22.50;58.50;;;;;;5034487;28;20021;-44
2022/10/31 13:08:19;;;;;;;12.95;4.53;;;22.50;58.50;;;;;;5036635;28;20052;-45
2022/10/31 13:11:09;;;;;;;9.38;4.90;;;22.50;58.80;;;;;;5053463;28;20031;-45
2022/10/31 13:13:59;;;;;;;11.18;4.53;;;22.50;58.90;;;;;;5051808;28;20020;-44
2022/10/31 13:16:33;;;;;;;6.90;3.58;;;22.40;59.20;;;;;;5049134;28;20052;-44
2022/10/31 13:19:04;;;;;;;10.70;3.83;;;22.50;59.50;;;;;;5050439;28;20071;-46
2022/10/31 13:21:34;;;;;;;10.57;4.27;;;22.50;59.70;;;;;;5038971;28;20033;-44
2022/10/31 13:24:04;;;;;;;7.57;4.13;;;22.50;59.80;;;;;;5033126;28;20053;-45
2022/10/31 13:26:45;;;;;;;9.02;3.88;;;22.50;59.90;;;;;;5050508;28;20485;-44
2022/10/31 13:29:27;;;;;;;13.15;4.05;;;22.50;60.00;;;;;;5050190;28;20751;-44
2022/10/31 13:31:53;;;;;;;7.07;4.22;;;22.50;60.10;;;;;;5050627;28;20044;-50
2022/10/31 13:34:30;;;;;;;8.55;3.92;;;22.40;60.20;;;;;;5041701;28;20033;-45
2022/10/31 13:37:14;;;;;;;5.95;3.20;;;22.50;60.40;;;;;;5050870;28;20055;-51
2022/10/31 13:39:45;;;;;;;7.35;3.33;;;22.50;60.40;;;;;;5050875;28;20025;-44